createdAt,value
2019-02-05T00:01:34.620Z,9.47
2019-02-05T00:05:53.611Z,9.80
2019-02-05T00:10:13.156Z,9.57
2019-02-05T00:14:31.483Z,7.47
2019-02-05T00:18:51.635Z,9.40
2019-02-05T00:23:10.028Z,9.30
2019-02-05T00:27:30.243Z,15.00
2019-02-05T00:31:49.954Z,11.13
2019-02-05T00:36:08.367Z,9.67
2019-02-05T00:40:28.006Z,7.33
2019-02-05T00:44:46.669Z,9.43
2019-02-05T00:49:05.112Z,9.03
2019-02-05T00:53:25.095Z,8.80
2019-02-05T00:57:45.213Z,8.20
2019-02-05T01:02:03.215Z,9.40
2019-02-05T01:06:21.449Z,9.33
2019-02-05T01:10:42.121Z,10.53
2019-02-05T01:15:00.447Z,8.40
2019-02-05T01:19:19.054Z,8.47
2019-02-05T01:23:38.571Z,8.10
2019-02-05T01:27:57.075Z,8.13
2019-02-05T01:32:15.115Z,9.13
2019-02-05T01:36:35.156Z,10.73
2019-02-05T01:40:53.570Z,8.60
2019-02-05T01:45:16.012Z,8.43
2019-02-05T01:49:36.037Z,9.43
2019-02-05T01:53:54.168Z,9.30
2019-02-05T01:58:15.135Z,9.87
2019-02-05T02:02:35.807Z,8.10
2019-02-05T02:06:56.768Z,8.83
2019-02-05T02:11:15.173Z,6.50
2019-02-05T02:15:34.835Z,8.77
2019-02-05T02:19:54.791Z,9.60
2019-02-05T02:24:13.216Z,13.83
2019-02-05T02:28:33.237Z,10.10
2019-02-05T02:32:51.612Z,12.03
2019-02-05T02:37:09.747Z,9.97
2019-02-05T02:41:29.336Z,10.53
2019-02-05T02:45:47.833Z,10.97
2019-02-05T02:50:07.158Z,10.97
2019-02-05T02:54:25.162Z,11.77
2019-02-05T02:58:43.685Z,13.03
2019-02-05T03:03:03.515Z,11.93
2019-02-05T03:07:21.820Z,13.83
2019-02-05T03:11:39.993Z,11.77
2019-02-05T03:15:58.584Z,14.20
2019-02-05T03:20:16.983Z,8.87
2019-02-05T03:24:35.510Z,11.00
2019-02-05T03:28:53.734Z,12.77
2019-02-05T03:33:13.307Z,10.30
2019-02-05T03:37:32.211Z,9.90
2019-02-05T03:41:50.788Z,14.93
2019-02-05T03:46:13.854Z,20.73
2019-02-05T03:50:37.530Z,13.53
2019-02-05T03:56:26.053Z,13.27
2019-02-05T04:01:38.319Z,16.93
2019-02-05T04:06:27.471Z,10.73
2019-02-05T04:12:05.088Z,12.77
2019-02-05T04:17:27.371Z,12.33
2019-02-05T04:22:21.976Z,12.13
2019-02-05T04:27:43.953Z,16.47
2019-02-05T04:32:36.102Z,17.73
2019-02-05T04:37:41.505Z,13.47
2019-02-05T04:43:02.468Z,11.47
2019-02-05T04:48:09.359Z,13.17
2019-02-05T04:53:26.579Z,14.20
2019-02-05T04:59:00.907Z,13.47
2019-02-05T05:04:19.508Z,14.93
2019-02-05T05:09:40.787Z,14.60
2019-02-05T05:13:58.936Z,15.97
2019-02-05T05:18:17.587Z,13.60
2019-02-05T05:22:37.251Z,11.80
2019-02-05T05:26:55.965Z,15.87
2019-02-05T05:31:15.794Z,14.83
2019-02-05T05:35:43.602Z,15.20
2019-02-05T05:39:53.799Z,14.83
2019-02-05T05:44:13.255Z,14.73
2019-02-05T05:48:31.459Z,16.37
2019-02-05T05:52:49.532Z,16.07
2019-02-05T05:57:07.647Z,12.87
2019-02-05T06:01:27.243Z,14.70
2019-02-05T06:05:45.670Z,14.10
2019-02-05T06:10:06.880Z,16.90
2019-02-05T06:14:24.241Z,20.10
2019-02-05T06:18:43.003Z,15.40
2019-02-05T06:23:03.078Z,14.83
2019-02-05T06:27:21.340Z,14.57
2019-02-05T06:31:40.102Z,18.13
2019-02-05T06:35:58.189Z,15.67
2019-02-05T06:40:19.875Z,14.47
2019-02-05T06:44:38.138Z,18.07
2019-02-05T06:48:59.930Z,17.50
2019-02-05T06:53:18.123Z,15.07
2019-02-05T06:57:36.324Z,18.67
2019-02-05T07:01:55.580Z,16.70
2019-02-05T07:06:14.428Z,16.93
2019-02-05T07:10:32.616Z,16.93
2019-02-05T07:14:51.614Z,17.30
2019-02-05T07:19:10.021Z,15.77
2019-02-05T07:23:28.217Z,16.70
2019-02-05T07:27:46.600Z,17.87
2019-02-05T07:32:05.403Z,17.90
2019-02-05T07:36:24.111Z,16.80
2019-02-05T07:40:42.284Z,18.50
2019-02-05T07:45:00.659Z,16.67
2019-02-05T07:49:19.857Z,18.00
2019-02-05T07:53:38.172Z,16.80
2019-02-05T07:57:56.369Z,16.13
2019-02-05T08:02:14.624Z,16.00
2019-02-05T08:06:33.583Z,16.67
2019-02-05T08:10:51.714Z,14.43
2019-02-05T08:15:12.864Z,16.70
2019-02-05T08:19:31.620Z,16.80
2019-02-05T08:23:50.097Z,14.57
2019-02-05T08:28:08.853Z,14.47
2019-02-05T08:32:26.958Z,16.87
2019-02-05T08:36:45.978Z,18.07
2019-02-05T08:41:04.232Z,16.83
2019-02-05T08:45:25.926Z,15.87
2019-02-05T08:49:44.412Z,16.03
2019-02-05T08:54:02.718Z,11.93
2019-02-05T08:58:30.573Z,14.50
2019-02-05T09:02:41.189Z,12.73
2019-02-05T09:07:00.125Z,16.00
2019-02-05T09:11:18.264Z,19.23
2019-02-05T09:15:36.452Z,17.00
2019-02-05T09:19:54.749Z,19.47
2019-02-05T09:24:13.344Z,13.47
2019-02-05T09:28:31.453Z,18.50
2019-02-05T09:32:50.683Z,14.87
2019-02-05T09:37:09.038Z,13.80
2019-02-05T09:41:27.595Z,17.10
2019-02-05T09:45:46.061Z,12.80
2019-02-05T09:50:05.327Z,14.37
2019-02-05T09:54:23.728Z,16.77
2019-02-05T09:58:41.768Z,14.10
2019-02-05T10:03:00.079Z,15.90
2019-02-05T10:07:18.262Z,14.00
2019-02-05T10:11:36.819Z,17.00
2019-02-05T10:15:55.478Z,12.33
2019-02-05T10:20:14.668Z,11.20
2019-02-05T10:24:32.703Z,14.13
2019-02-05T10:28:50.871Z,20.80
2019-02-05T10:33:10.007Z,15.60
2019-02-05T10:37:28.400Z,16.80
2019-02-05T10:41:46.873Z,13.20
2019-02-05T10:46:05.695Z,11.13
2019-02-05T10:50:24.505Z,10.93
2019-02-05T10:54:43.073Z,6.70
2019-02-05T10:59:02.840Z,10.30
2019-02-05T11:03:21.855Z,13.03
2019-02-05T11:07:40.100Z,11.10
2019-02-05T11:11:59.245Z,7.87
2019-02-05T11:16:17.966Z,8.30
2019-02-05T11:20:36.196Z,8.10
2019-02-05T11:24:55.424Z,7.53
2019-02-05T11:29:14.302Z,7.43
2019-02-05T11:33:32.504Z,7.73
2019-02-05T11:37:50.612Z,9.13
2019-02-05T11:42:08.871Z,7.90
2019-02-05T11:46:27.109Z,7.57
2019-02-05T11:50:45.781Z,6.40
2019-02-05T11:55:04.367Z,7.03
2019-02-05T11:59:23.142Z,5.63
2019-02-05T12:03:41.213Z,6.70
2019-02-05T12:07:59.402Z,6.30
2019-02-05T12:12:17.668Z,6.50
2019-02-05T12:16:41.301Z,7.50
2019-02-05T12:20:59.609Z,7.10
2019-02-05T12:25:18.223Z,10.60
2019-02-05T12:29:36.685Z,7.47
2019-02-05T12:33:54.887Z,8.87
2019-02-05T12:38:13.130Z,7.23
2019-02-05T12:42:31.665Z,5.83
2019-02-05T12:46:50.141Z,6.93
2019-02-05T12:51:08.886Z,7.73
2019-02-05T12:55:28.995Z,7.33
2019-02-05T12:59:47.463Z,6.20
2019-02-05T13:04:06.510Z,5.90
2019-02-05T13:08:25.123Z,5.67
2019-02-05T13:12:43.703Z,5.50
2019-02-05T13:17:01.965Z,4.90
2019-02-05T13:21:20.611Z,5.83
2019-02-05T13:25:39.213Z,5.73
2019-02-05T13:29:57.991Z,4.20
2019-02-05T13:34:16.111Z,5.07
2019-02-05T13:38:34.699Z,5.20
2019-02-05T13:42:53.115Z,5.30
2019-02-05T13:47:11.645Z,4.67
2019-02-05T13:51:30.209Z,4.90
2019-02-05T13:55:48.620Z,4.00
2019-02-05T14:00:14.772Z,4.53
2019-02-05T14:04:33.338Z,4.93
2019-02-05T14:08:51.966Z,4.10
2019-02-05T14:13:11.103Z,4.50
2019-02-05T14:17:29.582Z,3.40
2019-02-05T14:21:48.213Z,3.77
2019-02-05T14:26:06.600Z,3.33
2019-02-05T14:31:05.387Z,3.40
2019-02-05T14:35:23.499Z,5.33
2019-02-05T14:39:41.829Z,2.70
2019-02-05T14:43:59.881Z,3.13
2019-02-05T14:48:17.979Z,2.30
2019-02-05T14:52:36.883Z,2.33
2019-02-05T14:56:55.334Z,2.93
2019-02-05T15:01:13.529Z,3.27
2019-02-05T15:05:33.083Z,3.70
2019-02-05T15:09:51.458Z,2.87
2019-02-05T15:14:09.484Z,3.40
2019-02-05T15:18:27.953Z,2.80
2019-02-05T15:22:46.208Z,2.90
2019-02-05T15:27:04.692Z,2.57
2019-02-05T15:31:22.814Z,2.87
2019-02-05T15:35:44.514Z,3.00
2019-02-05T15:40:03.290Z,2.73
2019-02-05T15:44:21.393Z,5.10
2019-02-05T15:48:40.121Z,3.30
2019-02-05T15:52:58.521Z,2.83
2019-02-05T15:57:16.535Z,3.30
2019-02-05T16:01:34.671Z,3.43
2019-02-05T16:05:52.833Z,3.27
2019-02-05T16:10:14.323Z,3.87
2019-02-05T16:14:32.389Z,3.23
2019-02-05T16:18:53.150Z,3.80
2019-02-05T16:23:10.811Z,3.87
2019-02-05T16:27:29.272Z,3.23
2019-02-05T16:31:49.094Z,2.73
2019-02-05T16:36:07.668Z,3.80
2019-02-05T16:40:28.047Z,3.00
2019-02-05T16:44:46.399Z,4.80
2019-02-05T16:49:06.875Z,4.00
2019-02-05T16:53:25.418Z,3.17
2019-02-05T16:57:44.453Z,3.40
2019-02-05T17:02:02.552Z,3.10
2019-02-05T17:06:20.769Z,3.70
2019-02-05T17:10:39.002Z,4.63
2019-02-05T17:14:57.418Z,4.03
2019-02-05T17:19:15.902Z,5.03
2019-02-05T17:23:34.231Z,4.13
2019-02-05T17:27:53.870Z,4.07
2019-02-05T17:32:11.995Z,3.40
2019-02-05T17:36:30.121Z,5.17
2019-02-05T17:40:48.600Z,7.37
2019-02-05T17:45:11.638Z,4.30
2019-02-05T17:49:29.873Z,4.93
2019-02-05T17:53:47.956Z,5.90
2019-02-05T17:58:07.119Z,4.73
2019-02-05T18:02:25.211Z,7.93
2019-02-05T18:06:44.209Z,4.43
2019-02-05T18:11:02.790Z,4.63
2019-02-05T18:15:27.726Z,4.40
2019-02-05T18:19:46.125Z,4.20
2019-02-05T18:24:04.775Z,3.97
2019-02-05T18:28:23.861Z,4.47
2019-02-05T18:32:42.109Z,4.60
2019-02-05T18:37:00.380Z,5.53
2019-02-05T18:41:19.042Z,7.60
2019-02-05T18:45:37.186Z,3.70
2019-02-05T18:49:55.711Z,5.67
2019-02-05T18:54:14.239Z,5.10
2019-02-05T18:58:33.584Z,5.07
2019-02-05T19:02:51.737Z,7.23
2019-02-05T19:07:10.061Z,4.50
2019-02-05T19:11:28.187Z,5.33
2019-02-05T19:15:46.336Z,9.17
2019-02-05T19:20:04.785Z,5.77
2019-02-05T19:24:47.066Z,4.90
2019-02-05T19:29:05.396Z,6.63
2019-02-05T19:33:27.353Z,6.03
2019-02-05T19:37:44.462Z,6.53
2019-02-05T19:42:03.128Z,6.50
2019-02-05T19:46:39.368Z,6.20
2019-02-05T19:50:58.169Z,8.17
2019-02-05T19:55:16.551Z,6.90
2019-02-05T19:59:35.709Z,9.60
2019-02-05T20:03:54.052Z,10.07
2019-02-05T20:08:13.328Z,7.33
2019-02-05T20:12:31.627Z,7.43
2019-02-05T20:16:49.816Z,7.47
2019-02-05T20:21:08.158Z,9.67
2019-02-05T20:25:27.297Z,11.60
2019-02-05T20:29:46.555Z,12.30
2019-02-05T20:34:05.004Z,9.63
2019-02-05T20:38:23.135Z,10.80
2019-02-05T20:42:41.256Z,13.73
2019-02-05T20:46:59.381Z,15.80
2019-02-05T20:51:18.475Z,14.73
2019-02-05T20:55:36.581Z,10.63
2019-02-05T20:59:55.155Z,9.97
2019-02-05T21:04:13.316Z,11.47
2019-02-05T21:08:31.377Z,15.10
2019-02-05T21:12:49.925Z,18.60
2019-02-05T21:17:08.084Z,14.70
2019-02-05T21:21:27.227Z,17.43
2019-02-05T21:25:46.430Z,18.83
2019-02-05T21:30:06.926Z,14.97
2019-02-05T21:34:25.538Z,21.50
2019-02-05T21:38:45.479Z,15.90
2019-02-05T21:43:04.652Z,16.23
2019-02-05T21:47:23.175Z,15.77
2019-02-05T21:51:43.798Z,17.40
2019-02-05T21:56:01.629Z,19.63
2019-02-05T22:00:26.629Z,20.00
2019-02-05T22:04:44.796Z,15.17
2019-02-05T22:09:04.958Z,15.70
2019-02-05T22:13:23.196Z,18.27
2019-02-05T22:17:42.426Z,14.70
2019-02-05T22:22:00.583Z,15.27
2019-02-05T22:26:19.555Z,14.10
2019-02-05T22:30:37.998Z,20.77
2019-02-05T22:34:56.917Z,20.40
2019-02-05T22:39:15.059Z,19.00
2019-02-05T22:43:33.203Z,18.03
2019-02-05T22:47:51.158Z,18.33
2019-02-05T22:52:09.825Z,16.50
2019-02-05T22:56:28.151Z,16.30
2019-02-05T23:01:32.416Z,17.80
2019-02-05T23:06:57.093Z,17.43
2019-02-05T23:12:17.770Z,17.67
2019-02-05T23:16:36.700Z,16.90
2019-02-05T23:20:55.398Z,18.50
2019-02-05T23:25:14.074Z,20.83
2019-02-05T23:29:33.310Z,20.20
2019-02-05T23:33:52.269Z,24.10
2019-02-05T23:38:10.369Z,18.80
2019-02-05T23:42:28.916Z,19.70
2019-02-05T23:46:47.446Z,20.67
2019-02-05T23:51:06.022Z,24.63
2019-02-05T23:55:24.087Z,20.87
2019-02-05T23:59:42.465Z,19.70
